createdAt,value
2023-05-06T00:01:30.281Z,0.60
2023-05-06T00:04:03.513Z,0.70
2023-05-06T00:06:35.999Z,0.90
2023-05-06T00:09:08.197Z,0.60
2023-05-06T00:11:40.713Z,0.98
2023-05-06T00:14:13.402Z,0.60
2023-05-06T00:16:46.241Z,0.75
2023-05-06T00:19:18.746Z,1.30
2023-05-06T00:21:51.401Z,1.10
2023-05-06T00:24:25.591Z,0.82
2023-05-06T00:26:58.677Z,1.00
2023-05-06T00:29:31.231Z,0.78
2023-05-06T00:32:03.652Z,1.10
2023-05-06T00:34:36.034Z,1.45
2023-05-06T00:37:08.380Z,1.10
2023-05-06T00:39:40.489Z,1.00
2023-05-06T00:42:13.106Z,1.30
2023-05-06T00:44:45.215Z,1.20
2023-05-06T00:47:18.794Z,1.05
2023-05-06T00:49:51.860Z,1.10
2023-05-06T00:52:24.340Z,1.95
2023-05-06T00:54:56.620Z,0.90
2023-05-06T00:57:28.671Z,0.93
2023-05-06T01:00:01.012Z,1.00
2023-05-06T01:02:46.514Z,1.00
2023-05-06T01:05:10.469Z,1.20
2023-05-06T01:10:38.347Z,0.93
2023-05-06T01:13:22.621Z,0.65
2023-05-06T01:15:57.799Z,0.50
2023-05-06T01:18:33.184Z,0.75
2023-05-06T01:21:07.659Z,1.20
2023-05-06T01:23:58.472Z,0.93
2023-05-06T01:26:30.854Z,1.02
2023-05-06T01:29:04.041Z,0.93
2023-05-06T01:31:39.088Z,1.00
2023-05-06T01:34:17.196Z,1.30
2023-05-06T01:37:08.826Z,1.00
2023-05-06T01:39:42.804Z,0.93
2023-05-06T01:42:16.711Z,1.10
2023-05-06T01:44:51.666Z,0.90
2023-05-06T01:47:24.477Z,1.17
2023-05-06T01:49:57.500Z,0.93
2023-05-06T01:52:29.940Z,1.00
2023-05-06T01:55:02.157Z,0.93
2023-05-06T01:57:34.996Z,0.95
2023-05-06T02:00:08.178Z,0.72
2023-05-06T02:02:42.347Z,0.93
2023-05-06T02:05:14.647Z,1.00
2023-05-06T02:07:47.614Z,1.20
2023-05-06T02:10:20.156Z,1.05
2023-05-06T02:12:54.444Z,1.70
2023-05-06T02:15:27.758Z,1.10
2023-05-06T02:18:01.703Z,0.80
2023-05-06T02:20:34.394Z,1.00
2023-05-06T02:23:08.328Z,0.80
2023-05-06T02:25:40.477Z,0.65
2023-05-06T02:28:13.041Z,1.22
2023-05-06T02:30:45.778Z,3.62
2023-05-06T02:33:17.940Z,0.90
2023-05-06T02:35:50.461Z,0.80
2023-05-06T02:38:23.299Z,0.80
2023-05-06T02:40:55.400Z,0.70
2023-05-06T02:43:27.662Z,0.78
2023-05-06T02:45:59.916Z,1.17
2023-05-06T02:48:32.373Z,0.90
2023-05-06T02:51:06.944Z,0.80
2023-05-06T02:56:10.605Z,1.07
2023-05-06T02:58:43.117Z,0.70
2023-05-06T03:01:15.406Z,0.90
2023-05-06T03:03:48.141Z,1.15
2023-05-06T03:06:21.131Z,0.80
2023-05-06T03:08:53.588Z,0.70
2023-05-06T03:11:25.860Z,0.50
2023-05-06T03:13:58.473Z,0.60
2023-05-06T03:16:30.752Z,0.47
2023-05-06T03:19:05.204Z,0.62
2023-05-06T03:24:09.130Z,0.70
2023-05-06T03:26:41.376Z,0.80
2023-05-06T03:29:14.176Z,0.82
2023-05-06T03:31:49.052Z,0.62
2023-05-06T03:34:22.076Z,0.70
2023-05-06T03:36:54.881Z,0.78
2023-05-06T03:39:27.253Z,0.68
2023-05-06T03:41:59.867Z,1.05
2023-05-06T03:44:32.356Z,0.90
2023-05-06T03:47:04.929Z,0.20
2023-05-06T03:49:37.968Z,0.80
2023-05-06T03:52:10.348Z,0.40
2023-05-06T03:54:42.767Z,0.93
2023-05-06T03:57:14.878Z,0.80
2023-05-06T03:59:47.862Z,0.80
2023-05-06T04:02:20.670Z,0.78
2023-05-06T04:04:52.835Z,1.00
2023-05-06T04:07:25.053Z,1.00
2023-05-06T04:09:57.125Z,0.80
2023-05-06T04:12:29.740Z,0.50
2023-05-06T04:15:02.148Z,1.05
2023-05-06T04:17:34.562Z,0.80
2023-05-06T04:20:09.655Z,0.90
2023-05-06T04:22:42.916Z,0.90
2023-05-06T04:25:16.372Z,0.80
2023-05-06T04:27:50.181Z,0.60
2023-05-06T04:30:23.544Z,0.88
2023-05-06T04:32:55.913Z,0.93
2023-05-06T04:35:28.390Z,0.98
2023-05-06T04:38:01.330Z,0.93
2023-05-06T04:40:36.681Z,0.70
2023-05-06T04:43:10.521Z,0.60
2023-05-06T04:45:46.305Z,0.95
2023-05-06T04:48:19.795Z,0.70
2023-05-06T04:50:53.198Z,0.50
2023-05-06T04:53:25.695Z,0.40
2023-05-06T04:55:59.302Z,0.50
2023-05-06T04:58:31.920Z,0.50
2023-05-06T05:01:06.327Z,0.47
2023-05-06T05:03:44.974Z,1.10
2023-05-06T05:06:17.300Z,0.80
2023-05-06T05:08:50.039Z,0.57
2023-05-06T05:11:22.587Z,0.82
2023-05-06T05:13:56.898Z,0.75
2023-05-06T05:16:29.961Z,0.70
2023-05-06T05:19:09.025Z,0.60
2023-05-06T05:21:40.700Z,1.52
2023-05-06T05:24:13.180Z,1.00
2023-05-06T05:26:45.898Z,0.85
2023-05-06T05:29:19.586Z,0.70
2023-05-06T05:31:52.282Z,0.80
2023-05-06T05:34:24.595Z,0.75
2023-05-06T05:36:58.793Z,0.80
2023-05-06T05:39:30.880Z,0.90
2023-05-06T05:42:04.060Z,0.68
2023-05-06T05:44:37.372Z,1.10
2023-05-06T05:47:10.237Z,0.80
2023-05-06T05:49:43.119Z,0.90
2023-05-06T05:52:16.713Z,1.00
2023-05-06T05:54:49.989Z,0.78
2023-05-06T05:57:22.088Z,0.72
2023-05-06T05:59:54.433Z,1.30
2023-05-06T06:02:26.693Z,0.45
2023-05-06T06:04:59.260Z,2.00
2023-05-06T06:07:33.915Z,0.80
2023-05-06T06:10:06.460Z,0.95
2023-05-06T06:12:38.714Z,0.70
2023-05-06T06:15:12.556Z,1.15
2023-05-06T06:17:46.022Z,0.70
2023-05-06T06:20:18.509Z,0.60
2023-05-06T06:22:50.701Z,0.60
2023-05-06T06:25:23.894Z,0.90
2023-05-06T06:27:57.676Z,1.87
2023-05-06T06:30:30.094Z,0.55
2023-05-06T06:33:02.642Z,1.00
2023-05-06T06:35:35.040Z,0.70
2023-05-06T06:38:07.243Z,1.15
2023-05-06T06:40:39.525Z,1.00
2023-05-06T06:43:11.846Z,0.90
2023-05-06T06:46:02.187Z,0.55
2023-05-06T06:48:35.033Z,0.80
2023-05-06T06:51:07.272Z,0.90
2023-05-06T06:53:39.407Z,1.20
2023-05-06T06:56:13.254Z,0.90
2023-05-06T06:58:45.663Z,0.93
2023-05-06T07:01:18.048Z,1.35
2023-05-06T07:03:50.154Z,1.82
2023-05-06T07:06:22.415Z,0.55
2023-05-06T07:08:56.497Z,0.60
2023-05-06T07:11:28.640Z,0.50
2023-05-06T07:14:01.225Z,0.55
2023-05-06T07:16:33.648Z,0.47
2023-05-06T07:19:05.904Z,0.60
2023-05-06T07:21:38.026Z,0.50
2023-05-06T07:24:11.397Z,0.68
2023-05-06T07:26:45.338Z,2.00
2023-05-06T07:29:18.071Z,1.20
2023-05-06T07:31:50.527Z,0.70
2023-05-06T07:34:22.753Z,0.50
2023-05-06T07:36:54.927Z,0.50
2023-05-06T07:39:27.210Z,0.60
2023-05-06T07:41:59.490Z,0.60
2023-05-06T07:44:31.807Z,1.10
2023-05-06T07:47:04.353Z,0.60
2023-05-06T07:49:36.759Z,0.62
2023-05-06T07:52:10.554Z,0.80
2023-05-06T07:54:42.733Z,1.62
2023-05-06T07:57:16.090Z,1.10
2023-05-06T07:59:50.919Z,1.00
2023-05-06T08:02:24.254Z,0.50
2023-05-06T08:04:57.639Z,1.00
2023-05-06T08:07:30.160Z,1.60
2023-05-06T08:10:02.312Z,0.65
2023-05-06T08:12:36.626Z,1.05
2023-05-06T08:15:09.974Z,0.50
2023-05-06T08:17:42.843Z,0.70
2023-05-06T08:20:15.664Z,0.40
2023-05-06T08:22:47.855Z,0.70
2023-05-06T08:25:20.111Z,0.60
2023-05-06T08:27:52.319Z,0.50
2023-05-06T08:30:24.716Z,0.80
2023-05-06T08:32:56.929Z,0.60
2023-05-06T08:35:29.374Z,1.30
2023-05-06T08:38:02.236Z,0.65
2023-05-06T08:40:35.380Z,0.60
2023-05-06T08:43:09.937Z,0.70
2023-05-06T08:45:43.087Z,0.75
2023-05-06T08:48:15.413Z,1.47
2023-05-06T08:50:50.149Z,1.00
2023-05-06T08:53:22.804Z,0.90
2023-05-06T08:55:56.181Z,0.72
2023-05-06T08:58:29.088Z,0.78
2023-05-06T09:01:02.136Z,0.80
2023-05-06T09:03:34.776Z,1.05
2023-05-06T09:06:07.072Z,0.60
2023-05-06T09:08:39.367Z,1.10
2023-05-06T09:11:26.204Z,0.75
2023-05-06T09:14:13.861Z,1.07
2023-05-06T09:16:51.014Z,0.60
2023-05-06T09:19:24.264Z,0.72
2023-05-06T09:21:57.660Z,0.60
2023-05-06T09:24:30.110Z,0.60
2023-05-06T09:27:03.604Z,0.65
2023-05-06T09:29:36.516Z,0.70
2023-05-06T09:32:11.893Z,0.78
2023-05-06T09:34:46.887Z,1.05
2023-05-06T09:37:21.111Z,1.00
2023-05-06T09:39:58.715Z,0.40
2023-05-06T09:42:34.223Z,0.40
2023-05-06T09:45:10.561Z,1.02
2023-05-06T09:47:44.857Z,2.12
2023-05-06T09:50:17.777Z,0.60
2023-05-06T09:52:51.268Z,1.25
2023-05-06T09:55:27.187Z,0.90
2023-05-06T09:58:01.848Z,1.00
2023-05-06T10:00:35.317Z,0.53
2023-05-06T10:03:09.120Z,1.12
2023-05-06T10:05:41.841Z,0.98
2023-05-06T10:08:18.014Z,0.90
2023-05-06T10:10:52.185Z,0.68
2023-05-06T10:15:57.859Z,0.47
2023-05-06T10:18:31.833Z,0.70
2023-05-06T10:21:07.143Z,1.02
2023-05-06T10:23:50.283Z,0.60
2023-05-06T10:26:24.659Z,0.55
2023-05-06T10:31:29.470Z,0.93
2023-05-06T10:34:04.923Z,0.57
2023-05-06T10:36:39.860Z,0.62
2023-05-06T10:39:14.452Z,0.95
2023-05-06T10:41:47.048Z,0.82
2023-05-06T10:44:19.598Z,0.75
2023-05-06T10:47:03.048Z,0.90
2023-05-06T10:49:35.828Z,1.00
2023-05-06T10:52:17.340Z,1.25
2023-05-06T10:54:52.382Z,1.10
2023-05-06T10:57:26.384Z,0.70
2023-05-06T10:59:58.831Z,0.72
2023-05-06T11:02:32.142Z,0.37
2023-05-06T11:05:06.841Z,0.53
2023-05-06T11:10:12.434Z,0.72
2023-05-06T11:12:53.761Z,0.72
2023-05-06T11:15:30.666Z,0.80
2023-05-06T11:18:04.521Z,0.80
2023-05-06T11:20:37.457Z,1.30
2023-05-06T11:23:09.716Z,0.80
2023-05-06T11:25:43.299Z,1.50
2023-05-06T11:28:16.903Z,1.23
2023-05-06T11:30:52.105Z,4.53
2023-05-06T11:33:27.154Z,1.05
2023-05-06T11:36:00.204Z,2.12
2023-05-06T11:38:56.508Z,1.00
2023-05-06T11:41:29.108Z,1.05
2023-05-06T11:44:01.237Z,0.80
2023-05-06T11:46:35.597Z,0.70
2023-05-06T11:49:08.122Z,0.90
2023-05-06T11:51:40.302Z,0.88
2023-05-06T11:54:13.378Z,1.02
2023-05-06T11:56:48.110Z,0.68
2023-05-06T11:59:28.797Z,0.95
2023-05-06T12:02:04.057Z,0.53
2023-05-06T12:04:46.714Z,0.80
2023-05-06T12:07:19.260Z,0.60
2023-05-06T12:09:52.173Z,0.93
2023-05-06T12:12:26.429Z,0.90
2023-05-06T12:14:59.455Z,1.15
2023-05-06T12:20:06.026Z,1.00
2023-05-06T12:22:39.399Z,0.60
2023-05-06T12:25:16.206Z,0.77
2023-05-06T12:27:49.382Z,1.00
2023-05-06T12:30:33.098Z,0.68
2023-05-06T12:33:05.424Z,1.75
2023-05-06T12:35:38.576Z,0.90
2023-05-06T12:38:13.508Z,1.10
2023-05-06T12:40:48.319Z,0.90
2023-05-06T12:46:10.904Z,0.80
2023-05-06T12:49:03.986Z,0.98
2023-05-06T12:51:36.543Z,0.70
2023-05-06T12:54:12.133Z,2.05
2023-05-06T12:56:47.207Z,1.05
2023-05-06T12:59:21.387Z,1.10
2023-05-06T13:01:53.521Z,0.90
2023-05-06T13:04:27.084Z,0.90
2023-05-06T13:06:59.434Z,0.90
2023-05-06T13:09:32.075Z,0.90
2023-05-06T13:12:05.167Z,1.10
2023-05-06T13:14:40.097Z,1.00
2023-05-06T13:17:11.783Z,1.25
2023-05-06T13:19:44.393Z,0.72
2023-05-06T13:22:17.673Z,0.95
2023-05-06T13:24:50.886Z,0.80
2023-05-06T13:27:23.125Z,0.55
2023-05-06T13:29:55.755Z,0.93
2023-05-06T13:32:28.304Z,0.50
2023-05-06T13:35:00.814Z,0.80
2023-05-06T13:37:33.420Z,0.80
2023-05-06T13:40:06.544Z,0.80
2023-05-06T13:42:39.082Z,1.00
2023-05-06T13:45:11.487Z,1.10
2023-05-06T13:47:44.242Z,1.05
2023-05-06T13:50:16.568Z,0.80
2023-05-06T13:52:48.752Z,1.02
2023-05-06T13:55:21.293Z,0.80
2023-05-06T13:57:53.453Z,1.52
2023-05-06T14:00:25.951Z,0.80
2023-05-06T14:02:59.091Z,1.10
2023-05-06T14:05:31.705Z,1.50
2023-05-06T14:08:04.196Z,2.20
2023-05-06T14:10:36.300Z,0.90
2023-05-06T14:13:08.598Z,1.12
2023-05-06T14:15:40.954Z,1.20
2023-05-06T14:18:13.379Z,0.98
2023-05-06T14:20:46.008Z,2.30
2023-05-06T14:23:18.291Z,1.02
2023-05-06T14:25:50.921Z,0.88
2023-05-06T14:28:23.167Z,0.90
2023-05-06T14:30:55.370Z,0.90
2023-05-06T14:33:27.585Z,1.57
2023-05-06T14:36:01.524Z,1.00
2023-05-06T14:38:33.746Z,1.00
2023-05-06T14:41:05.872Z,0.90
2023-05-06T14:43:38.263Z,0.42
2023-05-06T14:46:11.401Z,1.32
2023-05-06T14:48:44.588Z,1.57
2023-05-06T14:51:16.928Z,0.90
2023-05-06T14:53:49.844Z,1.12
2023-05-06T14:56:22.086Z,1.05
2023-05-06T14:58:54.181Z,0.93
2023-05-06T15:01:26.495Z,0.85
2023-05-06T15:03:59.287Z,0.57
2023-05-06T15:06:32.249Z,0.82
2023-05-06T15:09:04.702Z,0.45
2023-05-06T15:11:37.576Z,0.95
2023-05-06T15:14:09.838Z,1.47
2023-05-06T15:16:42.047Z,1.30
2023-05-06T15:19:14.455Z,1.12
2023-05-06T15:21:47.273Z,1.25
2023-05-06T15:24:19.583Z,0.93
2023-05-06T15:26:51.808Z,1.15
2023-05-06T15:29:24.839Z,0.75
2023-05-06T15:31:57.089Z,0.78
2023-05-06T15:34:29.175Z,1.00
2023-05-06T15:37:02.098Z,1.07
2023-05-06T15:39:40.805Z,0.70
2023-05-06T15:42:12.830Z,0.82
2023-05-06T15:44:45.024Z,1.17
2023-05-06T15:47:17.193Z,1.20
2023-05-06T15:49:54.451Z,1.17
2023-05-06T15:52:23.960Z,1.40
2023-05-06T15:54:59.745Z,0.90
2023-05-06T15:57:32.481Z,1.25
2023-05-06T16:00:08.250Z,0.98
2023-05-06T16:02:40.832Z,0.85
2023-05-06T16:05:13.439Z,1.20
2023-05-06T16:07:45.763Z,1.25
2023-05-06T16:10:18.010Z,0.70
2023-05-06T16:12:50.494Z,0.80
2023-05-06T16:15:22.837Z,1.40
2023-05-06T16:17:55.421Z,0.90
2023-05-06T16:20:27.500Z,1.00
2023-05-06T16:23:00.054Z,0.60
2023-05-06T16:25:32.396Z,0.80
2023-05-06T16:28:06.783Z,2.45
2023-05-06T16:30:40.927Z,0.90
2023-05-06T16:33:13.582Z,1.30
2023-05-06T16:35:46.901Z,0.90
2023-05-06T16:38:19.545Z,0.97
2023-05-06T16:40:51.848Z,1.07
2023-05-06T16:43:24.537Z,0.95
2023-05-06T16:45:56.649Z,1.57
2023-05-06T16:48:29.079Z,1.20
2023-05-06T16:51:01.416Z,1.90
2023-05-06T16:53:33.570Z,1.15
2023-05-06T16:56:06.195Z,1.30
2023-05-06T16:58:38.578Z,0.85
2023-05-06T17:01:11.367Z,1.22
2023-05-06T17:03:43.578Z,1.42
2023-05-06T17:06:15.676Z,2.08
2023-05-06T17:08:48.748Z,1.30
2023-05-06T17:11:21.116Z,1.62
2023-05-06T17:13:53.539Z,1.90
2023-05-06T17:16:25.815Z,2.08
2023-05-06T17:18:57.986Z,1.80
2023-05-06T17:21:30.390Z,1.40
2023-05-06T17:24:02.578Z,1.30
2023-05-06T17:26:36.003Z,1.52
2023-05-06T17:29:08.311Z,1.00
2023-05-06T17:31:40.698Z,0.78
2023-05-06T17:34:13.148Z,1.07
2023-05-06T17:36:45.582Z,1.20
2023-05-06T17:39:18.312Z,1.20
2023-05-06T17:41:50.843Z,1.37
2023-05-06T17:44:23.060Z,1.15
2023-05-06T17:46:56.450Z,1.07
2023-05-06T17:49:28.742Z,0.95
2023-05-06T17:52:01.817Z,1.60
2023-05-06T17:54:35.305Z,1.90
2023-05-06T17:57:07.441Z,1.67
2023-05-06T17:59:39.850Z,1.17
2023-05-06T18:02:13.657Z,1.20
2023-05-06T18:04:47.543Z,1.10
2023-05-06T18:07:19.815Z,1.27
2023-05-06T18:09:52.451Z,1.27
2023-05-06T18:12:24.666Z,1.37
2023-05-06T18:14:57.020Z,1.65
2023-05-06T18:17:29.553Z,1.92
2023-05-06T18:20:01.715Z,1.60
2023-05-06T18:22:35.547Z,1.80
2023-05-06T18:25:08.932Z,2.10
2023-05-06T18:27:41.899Z,2.75
2023-05-06T18:30:15.975Z,2.15
2023-05-06T18:32:51.006Z,1.55
2023-05-06T18:37:53.299Z,3.47
2023-05-06T18:40:25.524Z,2.33
2023-05-06T18:42:57.468Z,2.47
2023-05-06T18:45:29.681Z,2.10
2023-05-06T18:48:02.071Z,2.08
2023-05-06T18:50:34.637Z,1.47
2023-05-06T18:53:07.025Z,1.42
2023-05-06T18:55:39.443Z,2.20
2023-05-06T18:58:11.588Z,1.57
2023-05-06T19:00:44.484Z,1.90
2023-05-06T19:03:16.796Z,2.15
2023-05-06T19:05:48.924Z,1.45
2023-05-06T19:08:21.476Z,1.82
2023-05-06T19:10:53.539Z,2.08
2023-05-06T19:13:25.937Z,2.10
2023-05-06T19:15:58.048Z,1.62
2023-05-06T19:18:30.122Z,2.05
2023-05-06T19:21:02.734Z,1.87
2023-05-06T19:23:34.896Z,2.00
2023-05-06T19:26:07.522Z,1.95
2023-05-06T19:28:41.596Z,2.05
2023-05-06T19:31:13.974Z,2.47
2023-05-06T19:33:46.515Z,1.98
2023-05-06T19:36:18.557Z,2.02
2023-05-06T19:38:50.709Z,2.08
2023-05-06T19:41:22.934Z,2.12
2023-05-06T19:43:56.689Z,1.90
2023-05-06T19:46:28.948Z,2.33
2023-05-06T19:49:01.208Z,2.30
2023-05-06T19:51:33.149Z,1.70
2023-05-06T19:54:05.703Z,1.60
2023-05-06T19:56:37.949Z,3.17
2023-05-06T19:59:10.061Z,2.17
2023-05-06T20:01:42.279Z,2.30
2023-05-06T20:04:14.412Z,1.92
2023-05-06T20:06:46.506Z,2.02
2023-05-06T20:09:18.782Z,1.87
2023-05-06T20:11:50.904Z,1.90
2023-05-06T20:14:23.260Z,1.95
2023-05-06T20:16:55.760Z,2.52
2023-05-06T20:19:31.297Z,1.77
2023-05-06T20:22:03.916Z,1.92
2023-05-06T20:24:36.847Z,2.00
2023-05-06T20:27:09.836Z,2.35
2023-05-06T20:29:42.889Z,2.08
2023-05-06T20:32:15.252Z,1.80
2023-05-06T20:34:50.406Z,2.25
2023-05-06T20:37:22.455Z,1.90
2023-05-06T20:39:54.683Z,2.33
2023-05-06T20:42:26.883Z,1.80
2023-05-06T20:45:00.303Z,1.90
2023-05-06T20:47:35.220Z,1.65
2023-05-06T20:50:07.806Z,2.03
2023-05-06T20:52:40.072Z,1.75
2023-05-06T20:55:13.835Z,2.02
2023-05-06T20:57:46.008Z,2.00
2023-05-06T21:00:19.168Z,2.10
2023-05-06T21:02:51.732Z,1.98
2023-05-06T21:05:23.928Z,2.17
2023-05-06T21:07:56.189Z,2.02
2023-05-06T21:10:29.808Z,2.08
2023-05-06T21:13:02.130Z,1.98
2023-05-06T21:15:35.647Z,2.60
2023-05-06T21:18:07.919Z,1.92
2023-05-06T21:20:40.047Z,2.40
2023-05-06T21:23:12.165Z,1.72
2023-05-06T21:25:44.399Z,2.37
2023-05-06T21:28:17.108Z,1.90
2023-05-06T21:30:49.384Z,2.15
2023-05-06T21:33:21.653Z,2.05
2023-05-06T21:35:53.680Z,2.37
2023-05-06T21:38:27.889Z,1.70
2023-05-06T21:41:00.198Z,1.98
2023-05-06T21:43:33.465Z,2.58
2023-05-06T21:46:06.118Z,2.08
2023-05-06T21:48:38.146Z,2.27
2023-05-06T21:51:10.280Z,2.55
2023-05-06T21:53:42.430Z,2.42
2023-05-06T21:56:14.261Z,2.70
2023-05-06T21:58:46.591Z,2.60
2023-05-06T22:01:19.308Z,2.30
2023-05-06T22:03:51.908Z,3.40
2023-05-06T22:06:24.322Z,2.50
2023-05-06T22:08:56.601Z,2.60
2023-05-06T22:11:28.891Z,2.05
2023-05-06T22:14:01.234Z,2.90
2023-05-06T22:16:35.489Z,2.67
2023-05-06T22:19:08.602Z,2.20
2023-05-06T22:21:41.492Z,2.27
2023-05-06T22:24:13.712Z,2.58
2023-05-06T22:26:46.048Z,2.30
2023-05-06T22:29:19.069Z,2.10
2023-05-06T22:31:51.351Z,2.33
2023-05-06T22:34:23.849Z,2.50
2023-05-06T22:36:58.038Z,2.27
2023-05-06T22:39:30.165Z,2.30
2023-05-06T22:42:02.564Z,3.25
2023-05-06T22:44:35.316Z,2.27
2023-05-06T22:47:08.000Z,2.30
2023-05-06T22:49:40.749Z,2.70
2023-05-06T22:52:13.192Z,2.33
2023-05-06T22:54:45.610Z,3.10
2023-05-06T22:57:19.358Z,2.60
2023-05-06T22:59:51.816Z,2.95
2023-05-06T23:02:23.911Z,2.80
2023-05-06T23:04:56.190Z,2.72
2023-05-06T23:07:28.283Z,2.27
2023-05-06T23:10:00.343Z,2.95
2023-05-06T23:12:35.752Z,2.95
2023-05-06T23:15:09.009Z,3.17
2023-05-06T23:17:41.850Z,2.55
2023-05-06T23:20:14.332Z,2.72
2023-05-06T23:22:46.461Z,3.40
2023-05-06T23:25:18.732Z,2.65
2023-05-06T23:27:51.324Z,2.98
2023-05-06T23:30:23.870Z,2.55
2023-05-06T23:32:55.978Z,2.50
2023-05-06T23:35:28.295Z,3.00
2023-05-06T23:38:00.497Z,3.08
2023-05-06T23:40:32.663Z,5.35
2023-05-06T23:43:06.329Z,2.70
2023-05-06T23:45:38.752Z,2.58
2023-05-06T23:48:11.097Z,3.10
2023-05-06T23:50:43.173Z,2.47
2023-05-06T23:53:15.523Z,2.40
2023-05-06T23:55:47.902Z,2.65
2023-05-06T23:58:20.114Z,2.52
